createdAt,value
2022-10-04T00:00:29.641Z,8.91
2022-10-04T00:01:29.699Z,9.01
2022-10-04T00:02:29.665Z,9.10
2022-10-04T00:03:29.633Z,9.17
2022-10-04T00:04:29.591Z,9.20
2022-10-04T00:05:29.603Z,9.21
2022-10-04T00:06:29.582Z,9.20
2022-10-04T00:07:29.619Z,9.21
2022-10-04T00:08:29.552Z,9.23
2022-10-04T00:09:29.541Z,9.21
2022-10-04T00:10:29.532Z,9.14
2022-10-04T00:11:29.538Z,9.14
2022-10-04T00:12:29.544Z,9.13
2022-10-04T00:13:29.528Z,9.05
2022-10-04T00:14:29.506Z,9.04
2022-10-04T00:15:29.475Z,9.02
2022-10-04T00:16:29.495Z,9.08
2022-10-04T00:17:29.461Z,9.10
2022-10-04T00:18:29.456Z,9.14
2022-10-04T00:19:29.431Z,9.14
2022-10-04T00:20:29.434Z,9.14
2022-10-04T00:21:29.416Z,9.13
2022-10-04T00:22:29.405Z,9.08
2022-10-04T00:23:29.408Z,9.01
2022-10-04T00:24:29.400Z,8.96
2022-10-04T00:25:29.478Z,8.92
2022-10-04T00:26:29.366Z,8.91
2022-10-04T00:27:29.348Z,8.89
2022-10-04T00:28:29.431Z,8.86
2022-10-04T00:29:29.327Z,8.84
2022-10-04T00:30:29.327Z,8.80
2022-10-04T00:31:29.449Z,8.79
2022-10-04T00:32:29.308Z,8.79
2022-10-04T00:33:29.289Z,8.77
2022-10-04T00:34:30.312Z,8.71
2022-10-04T00:35:29.269Z,8.66
2022-10-04T00:36:29.367Z,8.66
2022-10-04T00:37:29.252Z,8.62
2022-10-04T00:38:29.239Z,8.59
2022-10-04T00:39:29.220Z,8.58
2022-10-04T00:40:29.241Z,8.56
2022-10-04T00:41:29.209Z,8.56
2022-10-04T00:42:29.210Z,8.55
2022-10-04T00:43:29.191Z,8.55
2022-10-04T00:44:29.181Z,8.52
2022-10-04T00:45:29.191Z,8.47
2022-10-04T00:46:29.246Z,8.45
2022-10-04T00:47:29.152Z,8.40
2022-10-04T00:48:31.605Z,8.40
2022-10-04T00:49:29.126Z,8.44
2022-10-04T00:50:29.174Z,8.44
2022-10-04T00:51:29.110Z,8.41
2022-10-04T00:52:29.101Z,8.41
2022-10-04T00:53:29.091Z,8.41
2022-10-04T00:54:29.085Z,8.40
2022-10-04T00:55:29.072Z,8.41
2022-10-04T00:56:29.071Z,8.47
2022-10-04T00:57:29.054Z,8.47
2022-10-04T00:58:29.045Z,8.48
2022-10-04T00:59:29.016Z,8.47
2022-10-04T01:00:29.015Z,8.45
2022-10-04T01:01:29.091Z,8.41
2022-10-04T01:02:29.102Z,8.43
2022-10-04T01:03:29.413Z,8.40
2022-10-04T01:04:28.976Z,8.43
2022-10-04T01:05:28.966Z,8.38
2022-10-04T01:06:28.955Z,8.40
2022-10-04T01:07:28.948Z,8.38
2022-10-04T01:08:28.937Z,8.37
2022-10-04T01:09:28.919Z,8.33
2022-10-04T01:10:28.915Z,8.33
2022-10-04T01:11:28.905Z,8.30
2022-10-04T01:12:28.896Z,8.28
2022-10-04T01:13:28.879Z,8.23
2022-10-04T01:14:28.869Z,8.20
2022-10-04T01:15:28.859Z,8.22
2022-10-04T01:16:28.951Z,8.16
2022-10-04T01:17:28.841Z,8.07
2022-10-04T01:18:28.834Z,8.05
2022-10-04T01:19:28.819Z,8.05
2022-10-04T01:20:28.809Z,8.05
2022-10-04T01:21:28.800Z,8.10
2022-10-04T01:22:28.811Z,8.11
2022-10-04T01:23:28.773Z,8.19
2022-10-04T01:24:28.779Z,8.26
2022-10-04T01:25:28.770Z,8.29
2022-10-04T01:26:28.752Z,8.37
2022-10-04T01:27:28.732Z,8.38
2022-10-04T01:28:28.802Z,8.40
2022-10-04T01:29:28.831Z,8.38
2022-10-04T01:30:28.797Z,8.36
2022-10-04T01:31:28.782Z,8.37
2022-10-04T01:32:28.695Z,8.34
2022-10-04T01:33:28.674Z,8.33
2022-10-04T01:34:28.667Z,8.34
2022-10-04T01:35:28.655Z,8.30
2022-10-04T01:36:28.653Z,8.30
2022-10-04T01:37:28.631Z,8.26
2022-10-04T01:38:28.622Z,8.22
2022-10-04T01:39:28.663Z,8.16
2022-10-04T01:40:28.637Z,8.11
2022-10-04T01:41:28.593Z,8.07
2022-10-04T01:42:28.585Z,8.07
2022-10-04T01:43:28.571Z,8.12
2022-10-04T01:44:28.569Z,8.16
2022-10-04T01:45:28.546Z,8.20
2022-10-04T01:46:28.582Z,8.28
2022-10-04T01:47:28.527Z,8.30
2022-10-04T01:48:28.537Z,8.36
2022-10-04T01:49:28.547Z,8.38
2022-10-04T01:50:28.516Z,8.38
2022-10-04T01:51:28.488Z,8.40
2022-10-04T01:52:28.477Z,8.44
2022-10-04T01:53:28.881Z,8.43
2022-10-04T01:54:28.466Z,8.47
2022-10-04T01:55:28.449Z,8.48
2022-10-04T01:56:28.441Z,8.47
2022-10-04T01:57:28.431Z,8.48
2022-10-04T01:58:28.496Z,8.48
2022-10-04T01:59:28.420Z,8.47
2022-10-04T02:00:28.400Z,8.47
2022-10-04T02:01:28.476Z,8.47
2022-10-04T02:02:28.382Z,8.47
2022-10-04T02:03:28.371Z,8.47
2022-10-04T02:04:28.380Z,8.47
2022-10-04T02:05:28.352Z,8.45
2022-10-04T02:06:28.341Z,8.44
2022-10-04T02:07:28.359Z,8.45
2022-10-04T02:08:28.334Z,8.43
2022-10-04T02:09:28.302Z,8.44
2022-10-04T02:10:28.300Z,8.48
2022-10-04T02:11:28.293Z,8.48
2022-10-04T02:12:28.280Z,8.48
2022-10-04T02:13:28.271Z,8.47
2022-10-04T02:14:28.243Z,8.47
2022-10-04T02:15:28.245Z,8.50
2022-10-04T02:16:28.303Z,8.52
2022-10-04T02:17:28.243Z,8.50
2022-10-04T02:18:28.204Z,8.53
2022-10-04T02:19:28.214Z,8.48
2022-10-04T02:20:28.186Z,8.53
2022-10-04T02:21:28.195Z,8.55
2022-10-04T02:22:28.174Z,8.58
2022-10-04T02:23:28.164Z,8.55
2022-10-04T02:24:28.146Z,8.56
2022-10-04T02:25:29.026Z,8.55
2022-10-04T02:26:28.128Z,8.56
2022-10-04T02:27:28.135Z,8.56
2022-10-04T02:28:28.221Z,8.52
2022-10-04T02:29:28.155Z,8.55
2022-10-04T02:30:28.097Z,8.52
2022-10-04T02:31:28.184Z,8.55
2022-10-04T02:32:28.060Z,8.58
2022-10-04T02:33:28.095Z,8.58
2022-10-04T02:34:28.158Z,8.56
2022-10-04T02:35:28.039Z,8.62
2022-10-04T02:36:28.028Z,8.65
2022-10-04T02:37:28.062Z,8.65
2022-10-04T02:38:28.010Z,8.68
2022-10-04T02:39:28.000Z,8.66
2022-10-04T02:40:27.979Z,8.66
2022-10-04T02:41:27.979Z,8.65
2022-10-04T02:42:27.971Z,8.68
2022-10-04T02:43:27.993Z,8.68
2022-10-04T02:44:27.951Z,8.66
2022-10-04T02:45:27.940Z,8.70
2022-10-04T02:46:27.948Z,8.68
2022-10-04T02:47:27.919Z,8.70
2022-10-04T02:48:27.910Z,8.70
2022-10-04T02:49:27.902Z,8.71
2022-10-04T02:50:27.881Z,8.71
2022-10-04T02:51:27.911Z,8.74
2022-10-04T02:52:27.874Z,8.76
2022-10-04T02:53:27.863Z,8.74
2022-10-04T02:54:27.852Z,8.79
2022-10-04T02:55:27.858Z,8.77
2022-10-04T02:56:27.823Z,8.77
2022-10-04T02:57:27.924Z,8.76
2022-10-04T02:58:27.805Z,8.76
2022-10-04T02:59:27.825Z,8.74
2022-10-04T03:00:27.774Z,8.74
2022-10-04T03:01:28.250Z,8.76
2022-10-04T03:02:30.135Z,8.73
2022-10-04T03:03:27.745Z,8.76
2022-10-04T03:04:27.726Z,8.74
2022-10-04T03:05:27.745Z,8.77
2022-10-04T03:06:27.717Z,8.74
2022-10-04T03:07:27.718Z,8.79
2022-10-04T03:08:27.688Z,8.76
2022-10-04T03:09:29.995Z,8.80
2022-10-04T03:10:27.678Z,8.80
2022-10-04T03:11:27.676Z,8.80
2022-10-04T03:12:27.665Z,8.76
2022-10-04T03:13:27.656Z,8.77
2022-10-04T03:14:27.645Z,8.79
2022-10-04T03:15:27.847Z,8.79
2022-10-04T03:16:27.639Z,8.81
2022-10-04T03:17:27.609Z,8.81
2022-10-04T03:18:27.620Z,8.87
2022-10-04T03:19:27.609Z,8.84
2022-10-04T03:20:27.580Z,8.87
2022-10-04T03:21:27.577Z,8.89
2022-10-04T03:22:27.551Z,8.92
2022-10-04T03:23:27.554Z,8.89
2022-10-04T03:24:27.538Z,8.92
2022-10-04T03:25:27.551Z,8.95
2022-10-04T03:26:27.521Z,8.95
2022-10-04T03:27:27.504Z,8.96
2022-10-04T03:28:27.729Z,8.96
2022-10-04T03:29:27.495Z,8.96
2022-10-04T03:30:27.462Z,8.98
2022-10-04T03:31:27.507Z,8.98
2022-10-04T03:32:27.653Z,8.98
2022-10-04T03:33:27.449Z,8.98
2022-10-04T03:34:27.432Z,8.99
2022-10-04T03:35:27.421Z,8.99
2022-10-04T03:36:27.412Z,8.96
2022-10-04T03:37:27.415Z,8.95
2022-10-04T03:38:27.394Z,8.96
2022-10-04T03:39:27.381Z,8.95
2022-10-04T03:40:27.365Z,8.95
2022-10-04T03:41:27.363Z,8.94
2022-10-04T03:42:27.646Z,8.98
2022-10-04T03:43:27.373Z,8.96
2022-10-04T03:44:27.323Z,8.95
2022-10-04T03:45:27.342Z,8.98
2022-10-04T03:46:27.305Z,8.99
2022-10-04T03:47:28.034Z,9.04
2022-10-04T03:48:27.303Z,9.08
2022-10-04T03:49:27.285Z,9.10
2022-10-04T03:50:27.276Z,9.10
2022-10-04T03:51:27.274Z,9.11
2022-10-04T03:52:27.239Z,9.08
2022-10-04T03:53:27.237Z,9.08
2022-10-04T03:54:27.227Z,9.08
2022-10-04T03:55:27.216Z,9.05
2022-10-04T03:56:27.200Z,9.08
2022-10-04T03:57:27.189Z,9.05
2022-10-04T03:58:27.179Z,9.10
2022-10-04T03:59:27.179Z,9.10
2022-10-04T04:00:27.169Z,9.05
2022-10-04T04:01:27.303Z,9.11
2022-10-04T04:02:27.220Z,9.11
2022-10-04T04:03:27.130Z,9.10
2022-10-04T04:04:27.121Z,9.08
2022-10-04T04:05:27.921Z,9.10
2022-10-04T04:06:27.102Z,9.11
2022-10-04T04:07:27.090Z,9.13
2022-10-04T04:08:27.073Z,9.10
2022-10-04T04:09:27.068Z,9.13
2022-10-04T04:10:27.060Z,9.14
2022-10-04T04:11:27.051Z,9.17
2022-10-04T04:12:27.040Z,9.18
2022-10-04T04:13:27.030Z,9.18
2022-10-04T04:14:27.012Z,9.21
2022-10-04T04:15:27.013Z,9.21
2022-10-04T04:16:27.041Z,9.23
2022-10-04T04:17:26.991Z,9.23
2022-10-04T04:18:26.974Z,9.26
2022-10-04T04:19:27.794Z,9.29
2022-10-04T04:20:26.952Z,9.29
2022-10-04T04:21:26.944Z,9.29
2022-10-04T04:22:26.935Z,9.32
2022-10-04T04:23:27.305Z,9.31
2022-10-04T04:24:26.915Z,9.31
2022-10-04T04:25:26.916Z,9.31
2022-10-04T04:26:26.887Z,9.28
2022-10-04T04:27:29.170Z,9.28
2022-10-04T04:28:26.938Z,9.26
2022-10-04T04:29:26.875Z,9.28
2022-10-04T04:30:26.848Z,9.28
2022-10-04T04:31:26.919Z,9.29
2022-10-04T04:32:27.647Z,9.29
2022-10-04T04:33:26.827Z,9.28
2022-10-04T04:34:26.948Z,9.31
2022-10-04T04:35:26.799Z,9.33
2022-10-04T04:36:26.806Z,9.33
2022-10-04T04:37:26.787Z,9.36
2022-10-04T04:38:26.769Z,9.35
2022-10-04T04:39:26.776Z,9.31
2022-10-04T04:40:26.760Z,9.31
2022-10-04T04:41:27.041Z,9.28
2022-10-04T04:42:26.729Z,9.29
2022-10-04T04:43:26.724Z,9.28
2022-10-04T04:44:26.700Z,9.24
2022-10-04T04:45:26.767Z,9.24
2022-10-04T04:46:28.096Z,9.20
2022-10-04T04:47:26.678Z,9.18
2022-10-04T04:48:26.662Z,9.20
2022-10-04T04:49:26.659Z,9.18
2022-10-04T04:50:26.892Z,9.15
2022-10-04T04:51:26.724Z,9.14
2022-10-04T04:52:26.621Z,9.14
2022-10-04T04:53:26.612Z,9.11
2022-10-04T04:54:26.602Z,9.11
2022-10-04T04:55:26.620Z,9.14
2022-10-04T04:56:26.843Z,9.15
2022-10-04T04:57:26.594Z,9.15
2022-10-04T04:58:26.554Z,9.08
2022-10-04T04:59:27.366Z,9.05
2022-10-04T05:00:26.533Z,9.05
2022-10-04T05:01:26.578Z,9.02
2022-10-04T05:02:26.562Z,9.05
2022-10-04T05:03:26.514Z,9.05
2022-10-04T05:04:26.494Z,9.05
2022-10-04T05:05:26.503Z,9.08
2022-10-04T05:06:26.479Z,9.11
2022-10-04T05:07:26.476Z,9.10
2022-10-04T05:08:26.454Z,9.08
2022-10-04T05:09:26.453Z,9.11
2022-10-04T05:10:26.426Z,9.10
2022-10-04T05:11:26.428Z,9.08
2022-10-04T05:12:26.417Z,9.08
2022-10-04T05:13:26.728Z,9.05
2022-10-04T05:14:26.388Z,9.01
2022-10-04T05:15:26.388Z,8.99
2022-10-04T05:16:26.462Z,9.01
2022-10-04T05:17:26.368Z,8.98
2022-10-04T05:18:27.170Z,8.96
2022-10-04T05:19:26.339Z,8.94
2022-10-04T05:20:26.339Z,8.98
2022-10-04T05:21:26.329Z,8.96
2022-10-04T05:22:26.310Z,8.98
2022-10-04T05:23:26.308Z,8.99
2022-10-04T05:24:26.290Z,8.99
2022-10-04T05:25:26.292Z,8.96
2022-10-04T05:26:26.270Z,8.98
2022-10-04T05:27:26.271Z,8.96
2022-10-04T05:28:26.330Z,8.96
2022-10-04T05:29:26.241Z,8.95
2022-10-04T05:30:26.227Z,8.95
2022-10-04T05:31:26.286Z,8.95
2022-10-04T05:32:26.212Z,8.94
2022-10-04T05:33:28.570Z,8.98
2022-10-04T05:34:26.192Z,8.96
2022-10-04T05:35:26.194Z,8.98
2022-10-04T05:36:26.193Z,8.96
2022-10-04T05:37:26.163Z,8.95
2022-10-04T05:38:26.151Z,8.95
2022-10-04T05:39:26.237Z,8.99
2022-10-04T05:40:26.183Z,9.01
2022-10-04T05:41:28.140Z,9.02
2022-10-04T05:42:27.106Z,9.08
2022-10-04T05:43:26.105Z,9.02
2022-10-04T05:44:26.085Z,9.04
2022-10-04T05:45:26.914Z,9.10
2022-10-04T05:46:26.085Z,9.10
2022-10-04T05:47:26.076Z,9.11
2022-10-04T05:48:26.188Z,9.10
2022-10-04T05:49:26.036Z,9.08
2022-10-04T05:50:26.025Z,9.05
2022-10-04T05:51:26.026Z,9.10
2022-10-04T05:52:26.020Z,9.11
2022-10-04T05:53:26.800Z,9.10
2022-10-04T05:54:25.978Z,9.11
2022-10-04T05:55:25.977Z,9.11
2022-10-04T05:56:26.397Z,9.17
2022-10-04T05:57:25.958Z,9.18
2022-10-04T05:58:26.580Z,9.17
2022-10-04T05:59:25.939Z,9.14
2022-10-04T06:00:25.920Z,9.14
2022-10-04T06:01:26.030Z,9.20
2022-10-04T06:02:26.000Z,9.20
2022-10-04T06:03:25.894Z,9.17
2022-10-04T06:04:26.204Z,9.20
2022-10-04T06:05:29.026Z,9.21
2022-10-04T06:06:25.873Z,9.23
2022-10-04T06:07:25.853Z,9.26
2022-10-04T06:08:25.946Z,9.26
2022-10-04T06:09:25.837Z,9.28
2022-10-04T06:10:25.819Z,9.31
2022-10-04T06:11:25.817Z,9.31
2022-10-04T06:12:26.000Z,9.31
2022-10-04T06:13:25.804Z,9.33
2022-10-04T06:14:25.772Z,9.33
2022-10-04T06:15:25.763Z,9.33
2022-10-04T06:16:25.789Z,9.35
2022-10-04T06:17:25.754Z,9.38
2022-10-04T06:18:25.734Z,9.38
2022-10-04T06:19:25.724Z,9.42
2022-10-04T06:20:25.722Z,9.42
2022-10-04T06:21:25.729Z,9.46
2022-10-04T06:22:26.514Z,9.47
2022-10-04T06:23:25.701Z,9.47
2022-10-04T06:24:27.080Z,9.53
2022-10-04T06:25:25.645Z,9.54
2022-10-04T06:26:25.656Z,9.60
2022-10-04T06:27:25.633Z,9.60
2022-10-04T06:28:25.682Z,9.64
2022-10-04T06:29:25.619Z,9.66
2022-10-04T06:30:25.691Z,9.65
2022-10-04T06:31:25.596Z,9.65
2022-10-04T06:32:25.586Z,9.74
2022-10-04T06:33:25.568Z,9.71
2022-10-04T06:34:25.576Z,9.71
2022-10-04T06:35:25.549Z,9.76
2022-10-04T06:36:25.546Z,9.75
2022-10-04T06:37:25.529Z,9.76
2022-10-04T06:38:25.519Z,9.81
2022-10-04T06:39:25.509Z,9.81
2022-10-04T06:40:25.590Z,9.83
2022-10-04T06:41:25.490Z,9.87
2022-10-04T06:42:25.480Z,9.90
2022-10-04T06:43:25.459Z,9.89
2022-10-04T06:44:25.460Z,9.97
2022-10-04T06:45:25.440Z,10.01
2022-10-04T06:46:25.464Z,10.01
2022-10-04T06:47:25.421Z,10.05
2022-10-04T06:48:25.562Z,10.07
2022-10-04T06:49:25.399Z,10.12
2022-10-04T06:50:25.465Z,10.15
2022-10-04T06:51:25.389Z,10.18
2022-10-04T06:52:25.382Z,10.20
2022-10-04T06:53:25.363Z,10.26
2022-10-04T06:54:25.355Z,10.33
2022-10-04T06:55:25.345Z,10.40
2022-10-04T06:56:25.344Z,10.44
2022-10-04T06:57:25.324Z,10.48
2022-10-04T06:58:25.317Z,10.51
2022-10-04T06:59:25.304Z,10.55
2022-10-04T07:00:25.337Z,10.61
2022-10-04T07:01:26.178Z,10.60
2022-10-04T07:02:25.322Z,10.67
2022-10-04T07:03:25.256Z,10.68
2022-10-04T07:04:25.250Z,10.70
2022-10-04T07:05:25.237Z,10.76
2022-10-04T07:06:25.244Z,10.82
2022-10-04T07:07:25.305Z,10.81
2022-10-04T07:08:25.306Z,10.79
2022-10-04T07:09:25.186Z,10.82
2022-10-04T07:10:25.182Z,10.86
2022-10-04T07:11:25.166Z,10.85
2022-10-04T07:12:25.775Z,10.89
2022-10-04T07:13:25.149Z,10.89
2022-10-04T07:14:25.157Z,10.96
2022-10-04T07:15:25.136Z,10.97
2022-10-04T07:16:25.118Z,11.03
2022-10-04T07:17:25.111Z,11.03
2022-10-04T07:18:25.118Z,11.06
2022-10-04T07:19:25.079Z,11.10
2022-10-04T07:20:25.073Z,11.11
2022-10-04T07:21:25.062Z,11.21
2022-10-04T07:22:25.051Z,11.28
2022-10-04T07:23:28.355Z,11.33
2022-10-04T07:24:25.045Z,11.40
2022-10-04T07:25:25.023Z,11.46
2022-10-04T07:26:25.048Z,11.47
2022-10-04T07:27:24.993Z,11.51
2022-10-04T07:28:25.033Z,11.51
2022-10-04T07:29:24.972Z,11.52
2022-10-04T07:30:25.303Z,11.52
2022-10-04T07:31:25.093Z,11.54
2022-10-04T07:32:24.952Z,11.57
2022-10-04T07:33:24.934Z,11.57
2022-10-04T07:34:24.936Z,11.62
2022-10-04T07:35:24.914Z,11.58
2022-10-04T07:36:24.914Z,11.58
2022-10-04T07:37:24.885Z,11.61
2022-10-04T07:38:24.884Z,11.58
2022-10-04T07:39:24.867Z,11.61
2022-10-04T07:40:24.866Z,11.67
2022-10-04T07:41:24.845Z,11.72
2022-10-04T07:42:24.885Z,11.72
2022-10-04T07:43:24.825Z,11.76
2022-10-04T07:44:24.827Z,11.82
2022-10-04T07:45:29.157Z,11.91
2022-10-04T07:46:25.854Z,11.96
2022-10-04T07:47:24.810Z,12.02
2022-10-04T07:48:24.790Z,12.09
2022-10-04T07:49:24.758Z,12.14
2022-10-04T07:50:24.767Z,12.23
2022-10-04T07:51:24.745Z,12.28
2022-10-04T07:52:24.736Z,12.32
2022-10-04T07:53:24.719Z,12.37
2022-10-04T07:54:24.721Z,12.42
2022-10-04T07:55:24.709Z,12.41
2022-10-04T07:56:24.690Z,12.46
2022-10-04T07:57:24.680Z,12.50
2022-10-04T07:58:24.671Z,12.57
2022-10-04T07:59:24.668Z,12.62
2022-10-04T08:00:24.662Z,12.64
2022-10-04T08:01:24.632Z,12.70
2022-10-04T08:02:28.922Z,12.77
2022-10-04T08:03:25.696Z,12.83
2022-10-04T08:04:24.612Z,12.90
2022-10-04T08:05:24.600Z,12.90
2022-10-04T08:06:24.593Z,12.96
2022-10-04T08:07:24.574Z,13.00
2022-10-04T08:08:24.573Z,13.03
2022-10-04T08:09:24.564Z,13.12
2022-10-04T08:10:24.561Z,13.20
2022-10-04T08:11:24.535Z,13.22
2022-10-04T08:12:24.674Z,13.23
2022-10-04T08:13:24.522Z,13.23
2022-10-04T08:14:24.512Z,13.26
2022-10-04T08:15:24.506Z,13.38
2022-10-04T08:16:24.584Z,13.41
2022-10-04T08:17:24.586Z,13.25
2022-10-04T08:18:24.467Z,13.11
2022-10-04T08:19:24.452Z,13.08
2022-10-04T08:20:24.437Z,13.04
2022-10-04T08:21:24.427Z,13.04
2022-10-04T08:22:24.434Z,12.86
2022-10-04T08:23:24.405Z,12.70
2022-10-04T08:24:24.398Z,12.65
2022-10-04T08:25:24.379Z,12.64
2022-10-04T08:26:24.398Z,12.68
2022-10-04T08:27:24.370Z,12.77
2022-10-04T08:28:24.434Z,12.82
2022-10-04T08:29:24.339Z,12.86
2022-10-04T08:30:24.348Z,12.93
2022-10-04T08:31:24.407Z,12.87
2022-10-04T08:32:24.320Z,12.93
2022-10-04T08:33:24.310Z,12.90
2022-10-04T08:34:24.301Z,12.97
2022-10-04T08:35:24.284Z,13.10
2022-10-04T08:36:24.272Z,13.25
2022-10-04T08:37:24.264Z,13.42
2022-10-04T08:38:24.256Z,13.44
2022-10-04T08:39:24.883Z,13.48
2022-10-04T08:40:24.242Z,13.41
2022-10-04T08:41:24.219Z,13.51
2022-10-04T08:42:24.213Z,13.59
2022-10-04T08:43:24.197Z,13.49
2022-10-04T08:44:25.005Z,13.52
2022-10-04T08:45:24.617Z,13.59
2022-10-04T08:46:24.256Z,13.66
2022-10-04T08:47:24.156Z,13.75
2022-10-04T08:48:24.146Z,13.89
2022-10-04T08:49:24.143Z,14.04
2022-10-04T08:50:24.134Z,14.15
2022-10-04T08:51:24.114Z,14.21
2022-10-04T08:52:24.116Z,14.29
2022-10-04T08:53:24.087Z,14.40
2022-10-04T08:54:24.088Z,14.57
2022-10-04T08:55:24.076Z,14.68
2022-10-04T08:56:24.070Z,14.64
2022-10-04T08:57:24.039Z,14.68
2022-10-04T08:58:24.040Z,14.75
2022-10-04T08:59:24.028Z,14.80
2022-10-04T09:00:24.050Z,14.86
2022-10-04T09:01:24.071Z,14.91
2022-10-04T09:02:24.050Z,14.84
2022-10-04T09:03:24.957Z,14.95
2022-10-04T09:04:23.982Z,14.98
2022-10-04T09:05:24.021Z,14.95
2022-10-04T09:06:23.971Z,14.96
2022-10-04T09:07:23.941Z,14.98
2022-10-04T09:08:23.942Z,14.96
2022-10-04T09:09:23.913Z,15.03
2022-10-04T09:10:25.266Z,14.99
2022-10-04T09:11:23.909Z,15.07
2022-10-04T09:12:23.900Z,15.21
2022-10-04T09:13:23.875Z,15.32
2022-10-04T09:14:23.885Z,15.44
2022-10-04T09:15:23.854Z,15.56
2022-10-04T09:16:24.001Z,15.62
2022-10-04T09:17:23.843Z,15.69
2022-10-04T09:18:23.857Z,15.71
2022-10-04T09:19:23.816Z,15.69
2022-10-04T09:20:38.445Z,15.57
2022-10-04T09:21:24.787Z,15.56
2022-10-04T09:22:23.793Z,15.59
2022-10-04T09:23:23.767Z,15.53
2022-10-04T09:24:23.925Z,15.49
2022-10-04T09:25:23.918Z,15.59
2022-10-04T09:26:23.757Z,15.69
2022-10-04T09:27:53.220Z,15.83
2022-10-04T09:28:24.826Z,15.87
2022-10-04T09:29:23.710Z,15.97
2022-10-04T09:30:23.700Z,15.97
2022-10-04T09:31:23.709Z,16.01
2022-10-04T09:32:23.682Z,15.97
2022-10-04T09:33:23.667Z,15.89
2022-10-04T09:34:23.702Z,15.74
2022-10-04T09:35:23.671Z,15.76
2022-10-04T09:36:23.642Z,15.83
2022-10-04T09:37:23.621Z,15.86
2022-10-04T09:38:23.621Z,15.83
2022-10-04T09:39:30.521Z,15.90
2022-10-04T09:40:24.603Z,15.87
2022-10-04T09:41:23.582Z,15.86
2022-10-04T09:42:23.580Z,15.86
2022-10-04T09:43:23.563Z,16.01
2022-10-04T09:44:23.553Z,16.14
2022-10-04T09:45:23.536Z,16.28
2022-10-04T09:46:23.557Z,16.33
2022-10-04T09:47:23.526Z,16.35
2022-10-04T09:48:23.516Z,16.43
2022-10-04T09:49:23.496Z,16.31
2022-10-04T09:50:23.495Z,16.38
2022-10-04T09:51:23.570Z,16.38
2022-10-04T09:52:23.467Z,16.41
2022-10-04T09:53:23.458Z,16.31
2022-10-04T09:54:23.456Z,16.08
2022-10-04T09:55:23.439Z,15.93
2022-10-04T09:56:23.428Z,15.84
2022-10-04T09:57:23.420Z,15.87
2022-10-04T09:58:23.407Z,16.01
2022-10-04T09:59:23.389Z,16.07
2022-10-04T10:00:23.493Z,16.14
2022-10-04T10:01:23.405Z,16.25
2022-10-04T10:02:23.401Z,16.45
2022-10-04T10:03:23.413Z,16.58
2022-10-04T10:04:23.341Z,16.63
2022-10-04T10:05:23.328Z,16.64
2022-10-04T10:06:23.371Z,16.73
2022-10-04T10:07:23.312Z,16.63
2022-10-04T10:08:28.013Z,16.64
2022-10-04T10:09:24.283Z,16.66
2022-10-04T10:10:23.281Z,16.76
2022-10-04T10:11:23.274Z,16.86
2022-10-04T10:12:23.272Z,16.97
2022-10-04T10:13:23.255Z,16.93
2022-10-04T10:14:23.237Z,16.91
2022-10-04T10:15:23.229Z,16.98
2022-10-04T10:16:23.318Z,17.15
2022-10-04T10:17:23.225Z,17.15
2022-10-04T10:18:23.198Z,17.18
2022-10-04T10:19:28.066Z,17.16
2022-10-04T10:20:24.184Z,17.14
2022-10-04T10:21:23.174Z,17.18
2022-10-04T10:22:23.169Z,17.34
2022-10-04T10:23:23.160Z,17.46
2022-10-04T10:24:23.137Z,17.37
2022-10-04T10:25:23.118Z,17.41
2022-10-04T10:26:23.114Z,17.44
2022-10-04T10:27:23.099Z,17.44
2022-10-04T10:28:23.121Z,17.66
2022-10-04T10:29:23.081Z,17.78
2022-10-04T10:30:23.078Z,17.62
2022-10-04T10:31:23.151Z,17.63
2022-10-04T10:32:23.058Z,17.72
2022-10-04T10:33:23.033Z,17.96
2022-10-04T10:34:23.041Z,18.25
2022-10-04T10:35:23.021Z,18.35
2022-10-04T10:36:23.002Z,18.41
2022-10-04T10:37:23.004Z,18.17
2022-10-04T10:38:23.013Z,18.25
2022-10-04T10:39:22.982Z,18.35
2022-10-04T10:40:22.964Z,18.50
2022-10-04T10:41:22.962Z,18.66
2022-10-04T10:42:22.945Z,18.78
2022-10-04T10:43:22.935Z,18.88
2022-10-04T10:44:22.935Z,19.10
2022-10-04T10:45:22.917Z,19.26
2022-10-04T10:46:22.934Z,19.18
2022-10-04T10:47:22.900Z,19.31
2022-10-04T10:48:22.886Z,19.14
2022-10-04T10:49:22.875Z,19.02
2022-10-04T10:50:22.916Z,18.70
2022-10-04T10:51:22.856Z,18.58
2022-10-04T10:52:22.846Z,18.50
2022-10-04T10:53:23.131Z,18.65
2022-10-04T10:54:22.831Z,18.62
2022-10-04T10:55:22.809Z,18.72
2022-10-04T10:56:26.700Z,18.80
2022-10-04T10:57:23.938Z,18.98
2022-10-04T10:58:22.777Z,19.13
2022-10-04T10:59:22.770Z,19.29
2022-10-04T11:00:22.761Z,19.31
2022-10-04T11:01:22.801Z,19.43
2022-10-04T11:02:37.069Z,19.37
2022-10-04T11:03:26.342Z,19.25
2022-10-04T11:04:22.703Z,19.10
2022-10-04T11:05:22.702Z,18.76
2022-10-04T11:06:22.905Z,18.58
2022-10-04T11:07:22.674Z,18.39
2022-10-04T11:08:22.664Z,18.10
2022-10-04T11:09:22.657Z,17.97
2022-10-04T11:10:22.644Z,17.92
2022-10-04T11:11:22.655Z,17.90
2022-10-04T11:12:22.617Z,17.99
2022-10-04T11:13:22.617Z,17.78
2022-10-04T11:14:22.596Z,17.70
2022-10-04T11:15:22.596Z,17.81
2022-10-04T11:16:22.649Z,17.92
2022-10-04T11:17:22.575Z,18.07
2022-10-04T11:18:22.558Z,17.95
2022-10-04T11:19:22.569Z,18.00
2022-10-04T11:20:22.569Z,18.03
2022-10-04T11:21:22.530Z,18.14
2022-10-04T11:22:22.509Z,18.11
2022-10-04T11:23:22.509Z,18.03
2022-10-04T11:24:22.490Z,18.21
2022-10-04T11:25:22.492Z,18.36
2022-10-04T11:26:22.481Z,18.26
2022-10-04T11:27:22.471Z,18.03
2022-10-04T11:28:22.519Z,18.02
2022-10-04T11:29:22.444Z,18.15
2022-10-04T11:30:22.424Z,18.29
2022-10-04T11:31:22.464Z,18.47
2022-10-04T11:32:22.423Z,18.32
2022-10-04T11:33:22.393Z,18.39
2022-10-04T11:34:22.384Z,18.47
2022-10-04T11:35:22.388Z,18.41
2022-10-04T11:36:22.365Z,18.41
2022-10-04T11:37:22.364Z,18.57
2022-10-04T11:38:22.353Z,18.84
2022-10-04T11:39:22.655Z,18.81
2022-10-04T11:40:22.328Z,18.76
2022-10-04T11:41:22.328Z,18.80
2022-10-04T11:42:22.297Z,19.10
2022-10-04T11:43:22.287Z,19.32
2022-10-04T11:44:22.287Z,19.54
2022-10-04T11:45:22.279Z,19.58
2022-10-04T11:46:22.348Z,19.56
2022-10-04T11:47:22.250Z,19.66
2022-10-04T11:48:22.236Z,19.59
2022-10-04T11:49:22.239Z,19.66
2022-10-04T11:50:22.210Z,19.59
2022-10-04T11:51:22.209Z,19.56
2022-10-04T11:52:22.191Z,19.33
2022-10-04T11:53:22.189Z,19.41
2022-10-04T11:54:22.170Z,19.44
2022-10-04T11:55:22.183Z,19.51
2022-10-04T11:56:22.160Z,19.51
2022-10-04T11:57:22.147Z,19.48
2022-10-04T11:58:22.133Z,19.41
2022-10-04T11:59:22.123Z,19.59
2022-10-04T12:00:22.122Z,19.94
2022-10-04T12:01:22.184Z,20.16
2022-10-04T12:02:22.087Z,20.50
2022-10-04T12:03:22.141Z,20.77
2022-10-04T12:04:22.160Z,20.77
2022-10-04T12:05:22.072Z,21.03
2022-10-04T12:06:22.069Z,21.34
2022-10-04T12:07:22.037Z,21.54
2022-10-04T12:08:22.028Z,21.62
2022-10-04T12:09:22.020Z,21.80
2022-10-04T12:10:22.246Z,21.62
2022-10-04T12:11:21.999Z,21.56
2022-10-04T12:12:21.981Z,21.47
2022-10-04T12:13:21.979Z,21.64
2022-10-04T12:14:21.969Z,21.84
2022-10-04T12:15:21.960Z,21.82
2022-10-04T12:16:21.978Z,21.83
2022-10-04T12:17:21.939Z,21.67
2022-10-04T12:18:21.937Z,21.65
2022-10-04T12:19:21.920Z,21.90
2022-10-04T12:20:21.900Z,21.84
2022-10-04T12:21:21.913Z,21.91
2022-10-04T12:22:21.903Z,22.06
2022-10-04T12:23:21.872Z,21.86
2022-10-04T12:24:21.964Z,21.82
2022-10-04T12:25:21.934Z,22.21
2022-10-04T12:26:21.836Z,22.45
2022-10-04T12:27:21.839Z,22.54
2022-10-04T12:28:21.830Z,22.49
2022-10-04T12:29:21.816Z,22.10
2022-10-04T12:30:21.796Z,21.98
2022-10-04T12:31:21.876Z,21.86
2022-10-04T12:32:21.798Z,21.77
2022-10-04T12:33:22.577Z,21.49
2022-10-04T12:34:21.758Z,21.49
2022-10-04T12:35:21.780Z,21.47
2022-10-04T12:36:21.729Z,21.43
2022-10-04T12:37:21.763Z,21.35
2022-10-04T12:38:22.248Z,20.85
2022-10-04T12:39:21.700Z,20.85
2022-10-04T12:40:21.692Z,20.79
2022-10-04T12:41:21.692Z,20.89
2022-10-04T12:42:21.674Z,21.12
2022-10-04T12:43:21.661Z,20.95
2022-10-04T12:44:21.643Z,21.09
2022-10-04T12:45:21.642Z,21.29
2022-10-04T12:46:21.764Z,21.38
2022-10-04T12:47:21.933Z,21.31
2022-10-04T12:48:21.605Z,21.32
2022-10-04T12:49:21.613Z,21.34
2022-10-04T12:50:21.596Z,21.42
2022-10-04T12:51:21.586Z,21.58
2022-10-04T12:52:21.576Z,21.52
2022-10-04T12:53:21.558Z,21.47
2022-10-04T12:54:21.576Z,21.49
2022-10-04T12:55:21.548Z,21.47
2022-10-04T12:56:21.528Z,21.54
2022-10-04T12:57:21.528Z,21.59
2022-10-04T12:58:21.509Z,21.50
2022-10-04T12:59:21.498Z,21.37
2022-10-04T13:00:21.490Z,21.27
2022-10-04T13:01:21.632Z,21.27
2022-10-04T13:02:21.568Z,21.28
2022-10-04T13:03:21.461Z,21.27
2022-10-04T13:04:21.441Z,21.03
2022-10-04T13:05:21.443Z,20.79